sim
Sign-in with your pilot id or email,
or register
Callsign
Passwort

Schedule Details

Flight Number: OEO5695
Departure: Paderborn Lippstadt Airport (EDLP) at 04:25
Arrival: Fuerteventura Airport (GCFV) at 09:20

Weather Information
Getting current METAR information for EDLP 192220Z 12005KT 080V140 CAVOK 14/01 Q1030
Getting current METAR information for GCFV 192200Z AUTO 36015KT 9999 FEW030 BKN045 18/12 Q1018

Schedule Frequency

Route Map